< < Back
Terminal Aerodrome Forecast


Current Version              Previous Versions:   1  2  3  4  5  6  7  8  9  

Terminal Aerodrome Forecast

863
FTUS44 KMOB 022211 AAA
TAFMOB
TAF AMD
KMOB 022211Z 0222/0318 17008KT P6SM VCTS SCT015CB BKN030 OVC050
      TEMPO 0222/0301 4SM TSRA BKN020CB
     FM030200 16004KT P6SM BKN012 OVC030
     FM031200 36005KT 4SM BR OVC007=

Latest METAR

016
SAUS80 KWBC 030800 CCA
MTRMOB
METAR KMOB 030756Z AUTO 00000KT 9SM OVC008 20/20 A2991 RMK AO2 SLP127
T02000200


USA.gov is the U.S. government's official web portal to all federal, state and local government web resources and services.